Skip Navigation LinksHome page > Weather > Current weather Skip Navigation Links

Current Weather

Honolulu Intl, Honolulu

For information only: do not use for flight planning or navigation.
Latest weather
Observation time Wednesday, December 31, 2014 5:53 PM HST
Local time Saturday, January 31, 2015 6:04 PM HST
Flight conditions Visual Meteorological Conditions
Winds
Wind direction South (170°)
Wind speed 7 mph
Visibility 10 mi.
Sky condition
Ceiling 3,700 ft. broken clouds
Cloud layer broken clouds 3,700 ft.
Cloud layer broken clouds 3,800 ft.
Temperature 76°F
Dewpoint 63°F
Altimeter 29.98 in.Hg
Derived measurements
Relative humidity 64%
Density altitude 1305 ft.
Sea-level pressure 29.97 in.Hg
Remarks
Automated weather observing station with precipitation discriminator.
METAR PHNL 010353Z 17006KT 10SM BKN037 BKN038 24/17 A2998 RMK AO2 SLP150 T02440172

Settings

Location code

InnerDrive.Weather 4.0.5505.0 Release CLR 4.0.30319.34014
Copyright ©2015 Inner Drive Technology. All rights reserved. Portions Copyright ©1986-2015 David Braverman.

Find weather

Site navigation


Skip Navigation Links

Place info

Page info

PayPal - The safer, easier way to pay online!

Return home.

Copyright ©2015 Inner Drive Technology. Purveyors of fine, hand-crafted computer software. Page printed 2015-02-01T04:04:47 UTC.